Time;durP1;ratioP1;P1;durP2;ratioP2;P2;SDS_P1;SDS_P2;PMS_P1;PMS_P2;Temp;Humidity;BMP_temperature;BMP_pressure;BME280_temperature;BME280_humidity;BME280_pressure;Samples;Min_cycle;Max_cycle;Signal;HPM_P1;HPM_P2
2024/02/24 00:00:43;;;;;;;6.90;3.63;;;;;;;-146.27;87.40;44885.72;5066548;28;20093;-72
2024/02/24 00:03:08;;;;;;;5.30;3.33;;;;;;;-146.27;87.35;44897.66;5061421;28;20073;-73
2024/02/24 00:05:34;;;;;;;9.25;3.67;;;;;;;-146.27;87.20;44895.69;5060173;28;20540;-72
2024/02/24 00:08:00;;;;;;;5.90;3.10;;;;;;;-146.27;87.32;44867.81;5064444;28;20032;-71
2024/02/24 00:10:25;;;;;;;6.03;3.30;;;;;;;-146.27;87.38;44885.72;5067654;28;20693;-72
2024/02/24 00:12:50;;;;;;;6.00;3.65;;;;;;;-146.27;87.65;44913.59;5065986;28;20031;-73
2024/02/24 00:15:16;;;;;;;4.80;3.00;;;;;;;-146.27;87.94;44899.66;5075387;28;20103;-72
2024/02/24 00:17:41;;;;;;;3.85;3.08;;;;;;;-146.27;87.96;44923.53;5072996;28;20028;-72
2024/02/24 00:20:08;;;;;;;7.63;3.95;;;;;;;-146.27;87.92;44899.66;5072002;28;20024;-72
2024/02/24 00:22:34;;;;;;;5.22;3.55;;;;;;;-146.27;87.75;44905.63;5072241;28;20035;-72
2024/02/24 00:25:00;;;;;;;6.53;3.17;;;;;;;-146.27;87.81;44923.53;5072320;28;20055;-72
2024/02/24 00:27:25;;;;;;;6.15;3.28;;;;;;;-146.27;87.94;44941.44;5072116;28;20045;-72
2024/02/24 00:29:50;;;;;;;5.90;3.60;;;;;;;-146.27;87.92;44891.69;5076965;28;20020;-72
2024/02/24 00:32:16;;;;;;;5.18;3.50;;;;;;;-146.27;87.84;44891.69;5072641;28;20476;-72
2024/02/24 00:34:43;;;;;;;6.03;3.92;;;;;;;-146.27;87.93;44927.53;5076406;28;20040;-72
2024/02/24 00:37:08;;;;;;;7.55;4.07;;;;;;;-146.27;87.86;44919.56;5071931;28;20055;-72
2024/02/24 00:39:34;;;;;;;8.57;5.10;;;;;;;-146.27;88.59;44939.47;5067615;28;20436;-72
2024/02/24 00:41:59;;;;;;;7.22;4.30;;;;;;;-146.27;88.66;44903.66;5069319;28;20044;-72
2024/02/24 00:44:24;;;;;;;9.63;5.10;;;;;;;-146.27;88.09;44915.59;5068278;28;20033;-73
2024/02/24 00:46:50;;;;;;;8.57;5.40;;;;;;;-146.27;87.94;44915.59;5070140;28;20027;-72
2024/02/24 00:49:15;;;;;;;13.70;6.68;;;;;;;-146.27;88.10;44903.66;5063749;28;20029;-72
2024/02/24 00:51:41;;;;;;;9.07;4.88;;;;;;;-146.27;87.88;44893.69;5064520;28;20048;-72
2024/02/24 00:54:08;;;;;;;9.70;4.80;;;;;;;-146.27;87.91;44925.53;5073082;28;20495;-72
2024/02/24 00:56:35;;;;;;;6.38;4.20;;;;;;;-146.27;88.50;44957.38;5077859;28;20037;-72
2024/02/24 00:59:00;;;;;;;9.00;3.97;;;;;;;-146.27;88.38;44939.47;5062413;28;20039;-72
2024/02/24 01:01:25;;;;;;;6.38;3.38;;;;;;;-146.27;88.75;44909.63;5070901;28;20091;-72
2024/02/24 01:03:51;;;;;;;7.35;4.00;;;;;;;-146.27;88.32;44949.41;5069642;28;20032;-71
2024/02/24 01:06:16;;;;;;;6.60;3.50;;;;;;;-146.27;88.12;44911.59;5067562;28;20024;-72
2024/02/24 01:08:41;;;;;;;5.90;3.67;;;;;;;-146.27;87.81;44971.31;5063107;28;20449;-72
2024/02/24 01:11:09;;;;;;;5.85;3.88;;;;;;;-146.27;88.97;44945.44;5066936;28;20105;-72
2024/02/24 01:13:35;;;;;;;4.75;3.47;;;;;;;-146.27;89.00;44919.56;5064800;28;20067;-73
2024/02/24 01:16:00;;;;;;;5.88;3.63;;;;;;;-146.27;88.01;44899.66;5067376;28;20683;-70
2024/02/24 01:18:28;;;;;;;4.85;3.55;;;;;;;-146.27;87.97;44891.69;5071202;28;20024;-72
2024/02/24 01:20:53;;;;;;;11.48;3.50;;;;;;;-146.27;88.10;44963.34;5071028;28;20101;-72
2024/02/24 01:23:21;;;;;;;5.18;2.90;;;;;;;-146.27;87.51;44915.59;5072029;28;20529;-71
2024/02/24 01:25:46;;;;;;;8.35;3.67;;;;;;;-146.27;87.20;44917.56;5070140;28;20024;-71
2024/02/24 01:28:12;;;;;;;6.88;3.25;;;;;;;-146.27;87.00;44915.59;5070605;28;20533;-72
2024/02/24 01:30:38;;;;;;;11.35;4.25;;;;;;;-146.27;87.00;44915.59;5069974;28;20140;-72
2024/02/24 01:33:05;;;;;;;7.00;3.58;;;;;;;-146.27;86.94;44929.50;5061843;28;20128;-72
2024/02/24 01:35:31;;;;;;;6.43;3.95;;;;;;;-146.27;87.10;44951.41;5067944;28;20717;-71
2024/02/24 01:37:56;;;;;;;5.25;3.72;;;;;;;-146.27;86.96;44931.50;5071836;28;20112;-73
2024/02/24 01:40:22;;;;;;;9.73;4.50;;;;;;;-146.27;87.06;44943.44;5070569;28;20555;-72
2024/02/24 01:42:47;;;;;;;6.85;4.88;;;;;;;-146.27;87.05;44963.34;5072062;28;20111;-72
2024/02/24 01:45:14;;;;;;;7.20;4.88;;;;;;;-146.27;87.41;44943.44;5068695;28;20074;-72
2024/02/24 01:47:40;;;;;;;8.73;5.35;;;;;;;-146.27;87.61;44953.38;5071220;28;20044;-72
2024/02/24 01:50:09;;;;;;;8.48;5.28;;;;;;;-146.27;87.61;44939.47;5070748;28;20660;-72
2024/02/24 01:52:36;;;;;;;10.50;4.43;;;;;;;-146.27;87.59;44963.34;5071292;28;20058;-72
2024/02/24 01:55:02;;;;;;;11.82;5.28;;;;;;;-146.27;87.91;44947.41;5069261;28;20507;-72
2024/02/24 01:57:35;;;;;;;10.15;3.97;;;;;;;-146.27;87.78;44947.41;5071396;28;20024;-72
2024/02/24 02:00:04;;;;;;;4.88;3.50;;;;;;;-146.27;87.89;44939.47;5065639;28;20531;-72
2024/02/24 02:02:30;;;;;;;10.82;4.10;;;;;;;-146.27;87.82;44933.50;5072199;28;20111;-72
2024/02/24 02:04:56;;;;;;;8.27;4.05;;;;;;;-146.27;87.79;44931.50;5070526;28;20107;-72
2024/02/24 02:07:22;;;;;;;7.93;4.20;;;;;;;-146.27;87.65;44917.56;5072194;28;20024;-72
2024/02/24 02:09:58;;;;;;;8.82;4.50;;;;;;;-146.27;87.67;44935.47;5070723;28;20693;-72
2024/02/24 02:12:24;;;;;;;6.60;4.32;;;;;;;-146.27;87.93;44909.63;5071098;28;20511;-73
2024/02/24 02:14:50;;;;;;;8.05;5.13;;;;;;;-146.27;87.84;44899.66;5071771;28;20058;-72
2024/02/24 02:17:16;;;;;;;5.90;4.57;;;;;;;-146.27;87.61;44897.66;5069947;28;20038;-72
2024/02/24 02:19:42;;;;;;;7.00;4.65;;;;;;;-146.27;87.48;44923.53;5070474;28;20083;-72
2024/02/24 02:22:11;;;;;;;8.23;4.57;;;;;;;-146.27;87.59;44917.56;5069882;28;20558;-72
2024/02/24 02:24:38;;;;;;;10.70;4.70;;;;;;;-146.27;87.86;44923.53;5066317;28;20027;-72
2024/02/24 02:27:06;;;;;;;7.50;3.97;;;;;;;-146.27;87.63;44911.59;5069455;28;20442;-72
2024/02/24 02:29:34;;;;;;;7.45;3.70;;;;;;;-146.27;88.11;44929.50;5070179;28;22764;-72
2024/02/24 02:32:00;;;;;;;13.48;4.00;;;;;;;-146.27;87.81;44959.38;5066719;28;20028;-72
2024/02/24 02:34:26;;;;;;;8.82;4.13;;;;;;;-146.27;88.36;44955.38;5075602;28;20103;-72
2024/02/24 02:36:51;;;;;;;5.30;3.45;;;;;;;-146.27;87.57;44911.59;5072170;28;20036;-72
2024/02/24 02:39:17;;;;;;;8.07;3.70;;;;;;;-146.27;87.00;44945.44;5073197;28;20032;-72
2024/02/24 02:41:42;;;;;;;7.18;3.60;;;;;;;-146.27;87.92;44963.34;5084535;28;20031;-72
2024/02/24 02:44:08;;;;;;;7.97;4.10;;;;;;;-146.27;86.93;44969.31;5066142;28;20103;-72
2024/02/24 02:46:33;;;;;;;5.65;3.70;;;;;;;-146.27;86.49;44915.59;5057066;28;20035;-72
2024/02/24 02:48:59;;;;;;;8.73;3.75;;;;;;;-146.27;86.39;44951.41;5072107;28;20024;-72
2024/02/24 02:51:24;;;;;;;6.50;3.53;;;;;;;-146.27;86.24;44967.31;5070494;28;20025;-72
2024/02/24 02:53:49;;;;;;;6.22;3.45;;;;;;;-146.27;86.92;44961.34;5070656;28;20025;-72
2024/02/24 02:56:16;;;;;;;6.75;3.80;;;;;;;-146.27;86.46;44953.38;5070300;28;20069;-72
2024/02/24 02:58:42;;;;;;;8.23;3.38;;;;;;;-146.27;86.42;44967.31;5070525;28;20033;-72
2024/02/24 03:01:11;;;;;;;4.63;3.33;;;;;;;-146.27;86.31;44967.31;5070050;28;20768;-72
2024/02/24 03:03:36;;;;;;;9.65;4.60;;;;;;;-146.27;86.61;44975.28;5069261;28;20362;-72
2024/02/24 03:06:02;;;;;;;8.65;3.97;;;;;;;-146.27;86.83;44971.31;5070284;28;20042;-72
2024/02/24 03:08:32;;;;;;;9.07;4.65;;;;;;;-146.27;87.26;44975.28;5070166;28;20027;-72
2024/02/24 03:10:58;;;;;;;6.90;4.05;;;;;;;-146.27;87.18;44975.28;5070176;28;20104;-72
2024/02/24 03:13:23;;;;;;;7.65;4.10;;;;;;;-146.27;87.77;45013.09;5069495;28;20158;-72
2024/02/24 03:15:49;;;;;;;8.10;4.70;;;;;;;-146.27;87.38;44983.25;5072227;28;20024;-72
2024/02/24 03:18:14;;;;;;;8.38;4.82;;;;;;;-146.27;87.59;44987.22;5070970;28;20070;-72
2024/02/24 03:20:40;;;;;;;7.65;4.60;;;;;;;-146.27;87.13;45003.16;5070350;28;20035;-73
2024/02/24 03:23:06;;;;;;;7.07;4.22;;;;;;;-146.27;87.51;44979.25;5070052;28;20031;-72
2024/02/24 03:25:32;;;;;;;10.23;4.65;;;;;;;-146.27;87.43;44995.19;5067759;28;20028;-72
2024/02/24 03:27:57;;;;;;;10.45;4.97;;;;;;;-146.27;87.52;45011.09;5072596;28;20072;-71
2024/02/24 03:30:23;;;;;;;13.30;5.32;;;;;;;-146.27;88.88;45031.00;5067096;28;20044;-73
2024/02/24 03:32:48;;;;;;;13.40;5.25;;;;;;;-146.27;88.29;44971.31;5063588;28;20029;-72
2024/02/24 03:35:13;;;;;;;11.85;5.20;;;;;;;-146.27;88.65;45013.09;5067622;28;20435;-73
2024/02/24 03:37:39;;;;;;;13.13;5.60;;;;;;;-146.27;88.56;44983.25;5074663;28;20495;-72
2024/02/24 03:40:06;;;;;;;12.07;5.57;;;;;;;-146.27;89.39;44995.19;5065600;28;20028;-71
2024/02/24 03:42:31;;;;;;;9.00;5.03;;;;;;;-146.27;88.99;44983.25;5069689;28;20505;-73
2024/02/24 03:44:57;;;;;;;16.38;5.63;;;;;;;-146.27;88.67;45007.13;5070183;28;20033;-71
2024/02/24 03:47:22;;;;;;;14.05;5.82;;;;;;;-146.27;87.92;44959.38;5077236;28;20038;-72
2024/02/24 03:49:47;;;;;;;14.18;6.28;;;;;;;-146.27;88.86;45027.03;5076259;28;20626;-73
2024/02/24 03:52:13;;;;;;;16.00;6.13;;;;;;;-146.27;89.02;45009.13;5074360;28;20496;-71
2024/02/24 03:54:38;;;;;;;12.18;5.88;;;;;;;-146.27;88.84;45005.13;5066986;28;20443;-72
2024/02/24 03:57:03;;;;;;;19.50;7.07;;;;;;;-146.27;88.99;44979.25;5060661;28;20036;-73
2024/02/24 03:59:29;;;;;;;13.93;7.00;;;;;;;-146.27;88.70;44957.38;5064208;28;20492;-72
2024/02/24 04:01:54;;;;;;;13.45;5.97;;;;;;;-146.27;88.58;45031.00;5074284;28;20536;-70
2024/02/24 04:04:19;;;;;;;16.15;6.95;;;;;;;-146.27;89.70;45025.03;5068774;28;20029;-70
2024/02/24 04:06:45;;;;;;;15.57;7.13;;;;;;;-146.27;89.55;44979.25;5070063;28;20016;-72
2024/02/24 04:09:10;;;;;;;11.75;6.47;;;;;;;-146.27;89.99;45005.13;5068220;28;20024;-71
2024/02/24 04:11:36;;;;;;;13.90;7.45;;;;;;;-146.27;90.18;44995.19;5067651;28;20032;-72
2024/02/24 04:14:01;;;;;;;15.07;6.32;;;;;;;-146.27;89.49;44979.25;5066550;28;20474;-72
2024/02/24 04:16:27;;;;;;;13.88;7.28;;;;;;;-146.27;89.13;44981.25;5068506;28;20021;-72
2024/02/24 04:18:52;;;;;;;10.68;6.32;;;;;;;-146.27;89.01;44955.38;5068871;28;20558;-71
2024/02/24 04:21:20;;;;;;;13.48;6.93;;;;;;;-146.27;89.01;44963.34;5068980;28;20507;-72
2024/02/24 04:23:45;;;;;;;12.30;7.20;;;;;;;-146.27;89.92;45005.13;5067882;28;20472;-72
2024/02/24 04:26:11;;;;;;;15.40;7.35;;;;;;;-146.27;89.46;45029.00;5057564;28;20124;-72
2024/02/24 04:28:36;;;;;;;12.50;7.43;;;;;;;-146.27;89.64;44999.16;5074016;28;20034;-72
2024/02/24 04:31:01;;;;;;;16.90;6.75;;;;;;;-146.27;89.91;44961.34;5073650;28;20557;-72
2024/02/24 04:33:27;;;;;;;13.82;6.55;;;;;;;-146.27;89.64;44995.19;5067621;28;20443;-71
2024/02/24 04:35:52;;;;;;;12.00;7.22;;;;;;;-146.27;89.35;44947.41;5068259;28;20056;-72
2024/02/24 04:38:17;;;;;;;12.80;7.15;;;;;;;-146.27;88.98;45023.03;5071126;28;20476;-72
2024/02/24 04:40:43;;;;;;;17.02;7.80;;;;;;;-146.27;89.59;44997.16;5064244;28;20033;-72
2024/02/24 04:43:08;;;;;;;16.85;7.97;;;;;;;-146.27;89.83;44987.22;5065383;28;20068;-72
2024/02/24 04:45:35;;;;;;;13.30;7.03;;;;;;;-146.27;89.78;44981.25;5065339;28;20036;-71
2024/02/24 04:48:00;;;;;;;15.65;8.35;;;;;;;-146.27;89.26;44983.25;5068314;28;20029;-72
2024/02/24 04:50:26;;;;;;;14.57;7.95;;;;;;;-146.27;89.70;44965.34;5087803;28;20030;-72
2024/02/24 04:52:52;;;;;;;15.43;7.15;;;;;;;-146.27;89.94;44951.41;5068752;28;20123;-72
2024/02/24 04:55:17;;;;;;;22.70;8.48;;;;;;;-146.27;90.48;44939.47;5069540;28;20111;-72
2024/02/24 04:57:42;;;;;;;13.50;7.68;;;;;;;-146.27;90.62;45003.16;5069361;28;20040;-72
2024/02/24 05:00:08;;;;;;;16.48;8.13;;;;;;;-146.27;90.15;45003.16;5072475;28;20028;-72
2024/02/24 05:02:34;;;;;;;16.70;7.93;;;;;;;-146.27;90.49;44961.34;5067818;28;20529;-72
2024/02/24 05:04:59;;;;;;;12.43;7.43;;;;;;;-146.27;91.27;44939.47;5077929;28;20028;-73
2024/02/24 05:07:25;;;;;;;18.17;9.38;;;;;;;-146.27;91.05;44983.25;5072882;28;20082;-73
2024/02/24 05:09:50;;;;;;;19.90;9.05;;;;;;;-146.27;91.29;44979.25;5064848;28;20055;-72
2024/02/24 05:12:16;;;;;;;17.75;8.75;;;;;;;-146.27;91.59;44965.34;5062541;28;20498;-72
2024/02/24 05:14:41;;;;;;;14.15;8.70;;;;;;;-146.27;91.31;44919.56;5062560;28;20599;-72
2024/02/24 05:17:12;;;;;;;18.90;7.97;;;;;;;-146.27;90.38;44933.50;5062361;28;20048;-72
2024/02/24 05:19:37;;;;;;;13.77;8.77;;;;;;;-146.27;90.20;44917.56;5061129;28;20063;-73
2024/02/24 05:22:02;;;;;;;16.73;9.38;;;;;;;-146.27;90.83;44949.41;5063948;28;20048;-72
2024/02/24 05:24:28;;;;;;;15.15;8.02;;;;;;;-146.27;90.52;44911.59;5062582;28;20032;-72
2024/02/24 05:26:53;;;;;;;19.73;9.23;;;;;;;-146.27;90.37;44943.44;5063785;28;20429;-73
2024/02/24 05:29:18;;;;;;;18.98;8.88;;;;;;;-146.27;90.32;44955.38;5068750;28;20032;-72
2024/02/24 05:31:44;;;;;;;14.35;8.43;;;;;;;-146.27;91.04;44963.34;5064721;28;20059;-72
2024/02/24 05:34:09;;;;;;;13.95;9.23;;;;;;;-146.27;90.72;44935.47;5064099;28;20032;-72
2024/02/24 05:36:35;;;;;;;14.93;8.77;;;;;;;-146.27;90.18;44947.41;5061014;28;20025;-71
2024/02/24 05:39:01;;;;;;;12.30;7.85;;;;;;;-146.27;90.55;44965.34;5063947;28;20031;-72
2024/02/24 05:41:26;;;;;;;14.63;8.40;;;;;;;-146.27;90.05;44947.41;5062205;28;20110;-72
2024/02/24 05:43:52;;;;;;;19.38;9.38;;;;;;;-146.27;90.09;44959.38;5062805;28;20021;-72
2024/02/24 05:46:17;;;;;;;14.07;9.05;;;;;;;-146.27;90.18;44941.44;5064049;28;20029;-72
2024/02/24 05:48:42;;;;;;;19.30;9.02;;;;;;;-146.27;90.26;44933.50;5060113;28;20054;-71
2024/02/24 05:51:16;;;;;;;18.00;10.07;;;;;;;-146.27;91.85;44943.44;5068749;28;20024;-73
2024/02/24 05:53:41;;;;;;;;;;;;;;;-146.27;92.01;44923.53;5071810;28;20496;-72
2024/02/24 05:56:07;;;;;;;22.15;9.90;;;;;;;-146.27;91.55;44937.47;5069969;28;19963;-72
2024/02/24 05:58:32;;;;;;;18.55;9.13;;;;;;;-146.27;91.29;44903.66;5069013;28;20024;-72
2024/02/24 06:00:58;;;;;;;18.65;9.10;;;;;;;-146.27;91.14;44871.81;5069611;28;20029;-72
2024/02/24 06:03:23;;;;;;;17.95;9.85;;;;;;;-146.27;91.48;44909.63;5066887;28;20035;-72
2024/02/24 06:05:49;;;;;;;18.55;10.32;;;;;;;-146.27;91.12;44895.69;5063722;28;20051;-73
2024/02/24 06:08:14;;;;;;;18.50;9.68;;;;;;;-146.27;90.76;44895.69;5065728;28;20408;-72
2024/02/24 06:10:40;;;;;;;16.25;9.48;;;;;;;-146.27;90.62;44893.69;5070164;28;20480;-73
2024/02/24 06:13:05;;;;;;;18.30;10.13;;;;;;;-146.27;90.54;44903.66;5067296;28;20028;-72
2024/02/24 06:15:31;;;;;;;21.38;11.05;;;;;;;-146.27;90.47;44899.66;5066403;28;20055;-72
2024/02/24 06:17:56;;;;;;;17.45;11.18;;;;;;;-146.27;91.27;44899.66;5068619;28;20017;-72
2024/02/24 06:20:22;;;;;;;21.95;11.10;;;;;;;-146.27;91.11;44919.56;5071342;28;20024;-72
2024/02/24 06:22:48;;;;;;;18.48;10.85;;;;;;;-146.27;90.96;44885.72;5071670;28;20024;-73
2024/02/24 06:25:14;;;;;;;19.15;11.50;;;;;;;-146.27;91.47;44873.78;5070640;28;20032;-73
2024/02/24 06:27:40;;;;;;;16.95;9.80;;;;;;;-146.27;90.97;44885.72;5067542;28;20049;-73
2024/02/24 06:30:07;;;;;;;17.10;10.90;;;;;;;-146.27;90.44;44891.69;5073883;28;20078;-73
2024/02/24 06:32:32;;;;;;;17.27;10.10;;;;;;;-146.27;91.36;44905.63;5092351;28;20021;-70
2024/02/24 06:34:58;;;;;;;23.70;11.25;;;;;;;-146.27;90.80;44875.78;5076135;28;20035;-73
2024/02/24 06:37:23;;;;;;;19.25;10.90;;;;;;;-146.27;90.53;44899.66;5080768;28;20062;-74
2024/02/24 06:39:48;;;;;;;19.67;10.50;;;;;;;-146.27;90.60;44901.66;5081856;28;20052;-74
2024/02/24 06:42:14;;;;;;;20.02;10.80;;;;;;;-146.27;90.33;44935.47;5077194;28;20485;-73
2024/02/24 06:44:41;;;;;;;22.13;11.75;;;;;;;-146.27;90.40;44903.66;5072896;28;20032;-72
2024/02/24 06:47:08;;;;;;;21.13;10.88;;;;;;;-146.27;90.19;44915.59;5073760;28;20100;-73
2024/02/24 06:49:33;;;;;;;23.52;12.07;;;;;;;-146.27;90.35;44949.41;5076495;28;20032;-73
2024/02/24 06:51:59;;;;;;;23.92;10.70;;;;;;;-146.27;90.47;44943.44;5076409;28;20039;-73
2024/02/24 06:54:24;;;;;;;19.48;10.65;;;;;;;-146.27;90.52;44923.53;5068085;28;20028;-73
2024/02/24 06:56:50;;;;;;;19.80;12.07;;;;;;;-146.27;90.45;44947.41;5065621;28;20398;-71
2024/02/24 06:59:16;;;;;;;17.38;11.07;;;;;;;-146.27;90.80;44939.47;5068342;28;20036;-73
2024/02/24 07:01:42;;;;;;;19.83;11.20;;;;;;;-146.27;90.25;44923.53;5069677;28;20089;-73
2024/02/24 07:04:08;;;;;;;17.65;9.93;;;;;;;-146.27;90.07;44919.56;5070244;28;20062;-73
2024/02/24 07:06:33;;;;;;;16.60;10.02;;;;;;;-146.27;90.32;44943.44;5070456;28;20099;-74
2024/02/24 07:08:59;;;;;;;19.63;11.00;;;;;;;-146.27;90.19;45009.13;5069633;28;20031;-73
2024/02/24 07:11:24;;;;;;;15.93;9.70;;;;;;;-146.27;89.99;44995.19;5070425;28;20029;-72
2024/02/24 07:13:49;;;;;;;15.30;9.88;;;;;;;-146.27;90.10;45009.13;5070467;28;20082;-73
2024/02/24 07:16:15;;;;;;;14.68;9.70;;;;;;;-146.27;90.10;44999.16;5069231;28;20476;-73
2024/02/24 07:18:41;;;;;;;16.13;9.90;;;;;;;-146.27;90.55;45021.06;5070345;28;20492;-72
2024/02/24 07:21:06;;;;;;;17.73;10.30;;;;;;;-146.27;90.41;45042.94;5071305;28;20025;-73
2024/02/24 07:23:32;;;;;;;17.02;10.27;;;;;;;-146.27;90.41;45027.03;5070338;28;20035;-73
2024/02/24 07:26:01;;;;;;;17.20;9.80;;;;;;;-146.27;90.07;45031.00;5068340;28;20485;-73
2024/02/24 07:28:27;;;;;;;19.08;9.98;;;;;;;-146.27;90.21;45070.81;5070376;28;20032;-73
2024/02/24 07:30:53;;;;;;;21.05;10.50;;;;;;;-146.27;90.22;45046.94;5069503;28;20029;-72
2024/02/24 07:33:18;;;;;;;18.23;9.35;;;;;;;-146.27;90.10;45066.81;5069234;28;20028;-73
2024/02/24 07:35:44;;;;;;;21.38;9.38;;;;;;;-146.27;90.26;45064.84;5069651;28;20036;-74
2024/02/24 07:38:09;;;;;;;19.75;9.85;;;;;;;-146.27;90.53;45086.72;5070369;28;20025;-74
2024/02/24 07:40:34;;;;;;;15.35;10.10;;;;;;;-146.27;90.60;45126.53;5070215;28;20832;-74
2024/02/24 07:43:01;;;;;;;16.58;9.20;;;;;;;-146.27;90.43;45158.38;5070114;28;20025;-74
2024/02/24 07:45:26;;;;;;;16.48;9.63;;;;;;;-146.27;89.79;45198.16;5068995;28;20013;-73
2024/02/24 07:47:53;;;;;;;18.85;10.13;;;;;;;-146.27;90.50;45176.28;5069702;28;20094;-72
2024/02/24 07:50:18;;;;;;;16.98;9.52;;;;;;;-146.27;90.34;45194.19;5069237;28;20032;-74
2024/02/24 07:52:44;;;;;;;16.50;9.13;;;;;;;-146.27;89.56;45247.91;5069351;28;20062;-74
2024/02/24 07:55:09;;;;;;;14.13;8.45;;;;;;;-146.27;89.55;45218.06;5070311;28;20056;-74
2024/02/24 07:57:35;;;;;;;16.27;9.18;;;;;;;-146.27;89.44;45220.06;5070278;28;20066;-74
2024/02/24 08:00:01;;;;;;;15.38;8.90;;;;;;;-146.27;88.54;45230.00;5069922;28;20655;-74
2024/02/24 08:02:26;;;;;;;12.73;8.18;;;;;;;-146.27;88.38;45261.84;5069412;28;20028;-73
2024/02/24 08:04:51;;;;;;;13.23;7.72;;;;;;;-146.27;88.03;45200.16;5070181;28;20054;-73
2024/02/24 08:07:17;;;;;;;10.52;7.65;;;;;;;-146.27;87.46;45174.28;5070188;28;20021;-74
2024/02/24 08:09:42;;;;;;;12.95;8.30;;;;;;;-146.27;87.76;45202.16;5070122;28;20400;-73
2024/02/24 08:12:07;;;;;;;12.35;7.45;;;;;;;-146.27;86.97;45154.38;5068376;28;20535;-74
2024/02/24 08:14:33;;;;;;;12.32;7.70;;;;;;;-146.27;86.92;45174.28;5068336;28;20067;-74
2024/02/24 08:16:58;;;;;;;11.15;6.68;;;;;;;-146.27;87.76;45152.41;5069926;28;20476;-74
2024/02/24 08:19:23;;;;;;;12.45;6.88;;;;;;;-146.27;87.59;45162.34;5068956;28;20757;-73
2024/02/24 08:21:49;;;;;;;10.13;7.53;;;;;;;-146.27;87.57;45202.16;5069753;28;20437;-74
2024/02/24 08:24:16;;;;;;;12.70;6.80;;;;;;;-146.27;87.03;45208.13;5069761;28;20020;-74
2024/02/24 08:26:43;;;;;;;11.90;6.43;;;;;;;-146.27;87.35;45208.13;5069943;28;20055;-74
2024/02/24 08:29:09;;;;;;;12.50;6.60;;;;;;;-146.27;86.41;45136.47;5069954;28;20032;-73
2024/02/24 08:31:35;;;;;;;14.80;7.70;;;;;;;-146.27;86.19;45162.34;5069589;28;20024;-74
2024/02/24 08:34:01;;;;;;;10.77;6.97;;;;;;;-146.27;86.24;45160.34;5068809;28;20043;-73
2024/02/24 08:36:26;;;;;;;9.27;5.95;;;;;;;-146.27;85.78;45174.28;5068307;28;20028;-74
2024/02/24 08:38:51;;;;;;;8.57;6.35;;;;;;;-146.27;86.65;45228.03;5073533;28;20129;-73
2024/02/24 08:41:17;;;;;;;10.02;6.28;;;;;;;-146.27;86.56;45166.31;5072770;28;20104;-72
2024/02/24 08:43:42;;;;;;;12.10;6.65;;;;;;;-146.27;86.15;45198.16;5073387;28;20089;-73
2024/02/24 08:46:08;;;;;;;8.82;6.10;;;;;;;-146.27;86.16;45182.25;5073073;28;20013;-73
2024/02/24 08:48:34;;;;;;;13.75;6.45;;;;;;;-146.27;86.01;45206.13;5073230;28;20036;-73
2024/02/24 08:50:59;;;;;;;10.23;6.28;;;;;;;-146.27;85.40;45222.06;5071953;28;20112;-73
2024/02/24 08:53:25;;;;;;;13.95;6.32;;;;;;;-146.27;85.40;45150.41;5073224;28;20050;-73
2024/02/24 08:55:50;;;;;;;14.13;7.15;;;;;;;-146.27;87.02;45265.84;5073083;28;20020;-73
2024/02/24 08:58:15;;;;;;;10.88;6.97;;;;;;;-146.27;86.99;45230.00;5071858;28;20111;-71
2024/02/24 09:00:41;;;;;;;15.60;7.57;;;;;;;-146.27;86.61;45210.09;5075702;28;20051;-73
2024/02/24 09:03:07;;;;;;;19.27;7.13;;;;;;;-146.27;86.06;45206.13;5072758;28;20028;-73
2024/02/24 09:05:32;;;;;;;9.68;6.28;;;;;;;-146.27;86.10;45249.91;5072885;28;20114;-73
2024/02/24 09:07:57;;;;;;;13.23;6.97;;;;;;;-146.27;86.25;45218.06;5072159;28;20111;-72
2024/02/24 09:10:23;;;;;;;9.10;6.32;;;;;;;-146.27;85.20;45206.13;5072124;28;20408;-72
2024/02/24 09:12:50;;;;;;;14.18;6.07;;;;;;;-146.27;84.55;45220.06;5071188;28;20054;-73
2024/02/24 09:15:15;;;;;;;9.60;6.68;;;;;;;-146.27;85.41;45228.03;5072410;28;20039;-72
2024/02/24 09:17:42;;;;;;;10.40;5.97;;;;;;;-146.27;86.42;45210.09;5071853;28;20029;-73
2024/02/24 09:20:08;;;;;;;6.80;4.75;;;;;;;-146.27;86.18;45216.09;5072451;28;20033;-71
2024/02/24 09:22:34;;;;;;;9.77;6.18;;;;;;;-146.27;85.11;45186.22;5070639;28;20055;-73
2024/02/24 09:25:00;;;;;;;7.47;5.32;;;;;;;-146.27;85.64;45206.13;5070398;28;20201;-72
2024/02/24 09:27:25;;;;;;;11.30;6.25;;;;;;;-146.27;86.81;45249.91;5070689;28;20116;-74
2024/02/24 09:29:51;;;;;;;9.40;5.25;;;;;;;-146.27;86.89;45285.75;5065803;28;20512;-72
2024/02/24 09:32:17;;;;;;;9.52;5.43;;;;;;;-146.27;87.16;45261.84;5071973;28;20020;-72
2024/02/24 09:34:44;;;;;;;10.63;5.85;;;;;;;-146.27;86.63;45273.78;5072053;28;20491;-73
2024/02/24 09:37:11;;;;;;;9.68;5.38;;;;;;;-146.27;86.65;45279.75;5070784;28;20621;-73
2024/02/24 09:39:40;;;;;;;8.88;5.32;;;;;;;-146.27;86.31;45234.00;5068990;28;20083;-72
2024/02/24 09:42:05;;;;;;;7.07;5.00;;;;;;;-146.27;86.92;45237.97;5071918;28;20025;-73
2024/02/24 09:44:31;;;;;;;8.45;4.53;;;;;;;-146.27;85.93;45204.13;5056458;28;20116;-72
2024/02/24 09:47:01;;;;;;;9.75;5.15;;;;;;;-146.27;86.32;45249.91;5068691;28;20365;-72
2024/02/24 09:49:32;;;;;;;8.48;4.30;;;;;;;-146.27;86.29;45196.19;5069357;28;20164;-72
2024/02/24 09:51:58;;;;;;;12.73;4.65;;;;;;;-146.27;85.34;45216.09;5073801;28;20040;-73
2024/02/24 09:54:24;;;;;;;8.50;4.05;;;;;;;-146.27;84.18;45202.16;5062805;28;20047;-71
2024/02/24 09:56:52;;;;;;;7.47;4.50;;;;;;;-146.27;84.80;45237.97;5068057;28;20021;-73
2024/02/24 09:59:19;;;;;;;9.88;4.20;;;;;;;-146.27;84.72;45224.03;5070884;28;20036;-72
2024/02/24 10:01:48;;;;;;;8.18;4.30;;;;;;;-146.27;84.99;45249.91;5062682;28;20025;-71
2024/02/24 10:04:15;;;;;;;6.25;3.67;;;;;;;-146.27;83.86;45237.97;5064314;28;20069;-73
2024/02/24 10:06:43;;;;;;;9.45;4.03;;;;;;;-146.27;84.65;45329.53;5065879;28;20699;-73
2024/02/24 10:09:10;;;;;;;4.82;3.22;;;;;;;-146.27;83.96;45293.69;5079941;28;20405;-71
2024/02/24 10:11:37;;;;;;;6.00;3.42;;;;;;;-146.27;83.66;45307.63;5073847;28;20051;-73
2024/02/24 10:14:04;;;;;;;5.55;3.60;;;;;;;-146.27;83.45;45369.31;5067527;28;20020;-73
2024/02/24 10:16:34;;;;;;;6.00;3.50;;;;;;;-146.27;82.64;45305.63;5079152;28;20438;-74
2024/02/24 10:19:00;;;;;;;3.67;2.97;;;;;;;-146.27;81.98;45283.75;5084335;28;20476;-72
2024/02/24 10:21:26;;;;;;;7.05;3.00;;;;;;;-146.27;81.59;45349.41;5079691;28;20033;-72
2024/02/24 10:23:51;;;;;;;3.47;3.00;;;;;;;-146.27;81.75;45381.25;5064034;28;20021;-73
2024/02/24 10:26:17;;;;;;;4.43;3.13;;;;;;;-146.27;81.45;45345.44;5071157;28;20040;-73
2024/02/24 10:28:42;;;;;;;6.40;2.45;;;;;;;-146.27;81.85;45403.16;5072218;28;20085;-72
2024/02/24 10:31:09;;;;;;;3.70;2.63;;;;;;;-146.27;81.00;45373.31;5070329;28;20028;-73
2024/02/24 10:33:36;;;;;;;7.25;2.85;;;;;;;-146.27;80.37;45405.16;5077235;28;20024;-73
2024/02/24 10:36:02;;;;;;;4.47;2.95;;;;;;;-146.27;79.70;45361.38;5070215;28;20039;-73
2024/02/24 10:38:29;;;;;;;8.90;2.95;;;;;;;-146.27;78.62;45325.53;5072847;28;20012;-73
2024/02/24 10:40:58;;;;;;;7.15;2.80;;;;;;;-146.27;77.96;45357.38;5081204;28;20036;-73
2024/02/24 10:43:25;;;;;;;5.93;2.80;;;;;;;-146.27;78.43;45383.25;5071830;28;20028;-73
2024/02/24 10:45:50;;;;;;;4.88;2.80;;;;;;;-146.27;78.84;45401.16;5066064;28;20025;-74
2024/02/24 10:48:17;;;;;;;6.43;3.17;;;;;;;-146.27;79.08;45381.25;5070749;28;20021;-74
2024/02/24 10:50:45;;;;;;;4.95;3.15;;;;;;;-146.27;79.34;45349.41;5064462;28;20035;-74
2024/02/24 10:53:14;;;;;;;7.68;3.10;;;;;;;-146.27;79.66;45373.31;5066129;28;20082;-74
2024/02/24 10:55:40;;;;;;;4.20;3.33;;;;;;;-146.27;80.04;45365.34;5079559;28;20035;-72
2024/02/24 10:58:06;;;;;;;10.23;3.40;;;;;;;-146.27;80.08;45285.75;5066388;28;20384;-75
2024/02/24 11:00:34;;;;;;;7.28;3.17;;;;;;;-146.27;81.24;45323.56;5065028;28;20028;-74
2024/02/24 11:03:00;;;;;;;4.15;3.45;;;;;;;-146.27;80.98;45305.63;5070710;28;20526;-72
2024/02/24 11:05:30;;;;;;;9.57;4.25;;;;;;;-146.27;80.98;45305.63;5077287;28;20032;-73